»·PEaware :: N8901D KVNY-KHII

N8901D :: KVNY-KHII

FLIGHT INFORMATION

Flight Status: Arrived
Operator: Privately registered:
United States
More flights under this callsign
Pilot: Danny D. (16518)
Aircraft: CESSNA 172 SKYHAWK
(C172)
More flights by this aircraft type
Origin: KVNY Van Nuys
United States
Destination: KHII Lake Havasu City
United States
More flights between these airports :: More routes between these airports
Route: DARTS PIRRO APLES CLIPP
File this flight plan on PilotEdge
Remarks:
Altitude:
(Current/Filed)
9,500ft
Speed:
(Current/Filed)
115kts
Departed: 30-Dec-17 11:10 AM
Arrived: 30-Dec-17 01:05 PM
Distance/Time
Traveled:
206nm/1:55
Distance/Time
To Go:
Arrived

Flight Plot

Page will automatically refresh every two minutes.

Flight plan parsing failed; only flown route is shown


Map Options




Map Legend


Flown Route
Filed Route
Departure Airport
Arrival Airport
Navaid (VOR, NDB)
Fix

Horizontal Profiles

Position Reports

Time Latitude Longitude Heading Altitude Ground
Speed
30-Dec-17 10:36 34.203787 -118.493465 62 776ft 1kts
30-Dec-17 10:37 34.203836 -118.493429 5 776ft 0kts
30-Dec-17 10:38 34.203836 -118.493429 5 776ft 0kts
30-Dec-17 10:39 34.203836 -118.493429 5 776ft 0kts
30-Dec-17 10:40 34.203836 -118.493429 5 776ft 0kts
30-Dec-17 10:41 34.203836 -118.493429 5 776ft 0kts
30-Dec-17 10:42 34.203841 -118.493429 2 776ft 0kts
30-Dec-17 10:43 34.203841 -118.493429 2 776ft 0kts
30-Dec-17 10:44 34.203841 -118.493429 2 776ft 0kts
30-Dec-17 10:45 34.203841 -118.493429 2 776ft 0kts
30-Dec-17 10:46 34.203841 -118.493429 2 776ft 0kts
30-Dec-17 10:47 34.203841 -118.493429 2 776ft 0kts
30-Dec-17 10:48 34.203841 -118.493429 2 776ft 0kts
30-Dec-17 10:49 34.203841 -118.493429 2 776ft 0kts
30-Dec-17 10:50 34.203841 -118.493429 2 776ft 0kts
30-Dec-17 10:51 34.203841 -118.493429 2 776ft 0kts
30-Dec-17 10:52 34.203841 -118.493429 2 776ft 0kts
30-Dec-17 10:53 34.203841 -118.493429 2 776ft 0kts
30-Dec-17 10:54 34.203841 -118.493429 2 776ft 0kts
30-Dec-17 10:55 34.203841 -118.493429 2 776ft 0kts
30-Dec-17 10:56 34.203841 -118.493429 2 776ft 0kts
30-Dec-17 10:57 34.203841 -118.493429 2 776ft 0kts
30-Dec-17 10:58 34.203841 -118.493429 2 776ft 0kts
30-Dec-17 10:59 34.203841 -118.493429 2 776ft 0kts
30-Dec-17 11:00 34.203841 -118.493429 2 776ft 0kts
30-Dec-17 11:01 34.203841 -118.493429 2 776ft 0kts
30-Dec-17 11:02 34.203841 -118.493429 2 776ft 0kts
30-Dec-17 11:03 34.203841 -118.493429 2 776ft 0kts
30-Dec-17 11:04 34.203841 -118.493429 2 776ft 0kts
30-Dec-17 11:05 34.203841 -118.493429 2 776ft 0kts
30-Dec-17 11:06 34.204654 -118.493294 5 776ft 11kts
30-Dec-17 11:07 34.206816 -118.491274 3 776ft 12kts
30-Dec-17 11:08 34.211946 -118.491745 356 776ft 22kts
30-Dec-17 11:09 34.217562 -118.492310 355 776ft 17kts
30-Dec-17 11:10 34.219172 -118.492218 148 776ft 0kts
30-Dec-17 11:11 34.219172 -118.492218 148 776ft 0kts
30-Dec-17 11:12 34.218762 -118.491917 84 776ft 0kts
30-Dec-17 11:13 34.218762 -118.491917 84 776ft 0kts
30-Dec-17 11:14 34.218762 -118.491917 84 776ft 0kts
30-Dec-17 11:15 34.217912 -118.491152 173 776ft 29kts
30-Dec-17 11:16 34.194440 -118.487956 168 1546ft 82kts
30-Dec-17 11:17 34.175935 -118.483388 160 2288ft 81kts
30-Dec-17 11:18 34.155469 -118.469093 146 3028ft 95kts
30-Dec-17 11:19 34.130727 -118.446822 134 2993ft 118kts
30-Dec-17 11:20 34.112485 -118.413846 103 2992ft 123kts
30-Dec-17 11:21 34.107723 -118.372504 96 2989ft 124kts
30-Dec-17 11:22 34.106150 -118.330786 89 2987ft 125kts
30-Dec-17 11:23 34.106259 -118.288904 89 2987ft 124kts
30-Dec-17 11:24 34.106374 -118.246978 89 2989ft 124kts
30-Dec-17 11:25 34.106495 -118.205177 89 2991ft 124kts
30-Dec-17 11:26 34.106541 -118.166077 89 3435ft 108kts
30-Dec-17 11:27 34.106374 -118.130728 89 4125ft 103kts
30-Dec-17 11:28 34.106087 -118.096664 89 4817ft 100kts
30-Dec-17 11:29 34.105692 -118.063171 89 5511ft 99kts
30-Dec-17 11:30 34.105100 -118.030441 89 6202ft 96kts
30-Dec-17 11:31 34.104334 -117.997524 89 6789ft 103kts
30-Dec-17 11:32 34.103473 -117.961701 89 7299ft 109kts
30-Dec-17 11:33 34.101691 -117.924945 100 7806ft 109kts
30-Dec-17 11:34 34.097145 -117.889183 100 8294ft 107kts
30-Dec-17 11:35 34.092634 -117.853796 102 8784ft 106kts
30-Dec-17 11:36 34.087357 -117.819068 102 9274ft 105kts
30-Dec-17 11:37 34.081834 -117.783146 100 9538ft 120kts
30-Dec-17 11:38 34.098244 -117.746137 55 9530ft 130kts
30-Dec-17 11:39 34.118710 -117.711264 55 9526ft 124kts
30-Dec-17 11:40 34.138422 -117.677724 55 9525ft 122kts
30-Dec-17 11:41 34.158254 -117.644247 52 9522ft 123kts
30-Dec-17 11:42 34.179440 -117.611474 52 9520ft 124kts
30-Dec-17 11:43 34.201334 -117.579214 47 9506ft 125kts
30-Dec-17 11:44 34.224913 -117.548176 47 9482ft 125kts
30-Dec-17 11:45 34.248528 -117.517119 47 9462ft 125kts
30-Dec-17 11:46 34.272101 -117.486421 47 9458ft 124kts
30-Dec-17 11:47 34.294227 -117.455093 47 9461ft 122kts
30-Dec-17 11:48 34.315944 -117.423830 47 9468ft 120kts
30-Dec-17 11:49 34.337520 -117.392916 47 9483ft 120kts
30-Dec-17 11:50 34.359003 -117.362238 47 9503ft 119kts
30-Dec-17 11:51 34.380600 -117.331445 48 9512ft 120kts
30-Dec-17 11:52 34.402186 -117.300676 47 9510ft 120kts
30-Dec-17 11:53 34.423978 -117.269616 47 9493ft 121kts
30-Dec-17 11:54 34.445820 -117.238483 47 9482ft 121kts
30-Dec-17 11:55 34.467524 -117.207535 47 9480ft 120kts
30-Dec-17 11:56 34.489153 -117.176682 47 9485ft 119kts
30-Dec-17 11:57 34.510587 -117.146095 47 9498ft 119kts
30-Dec-17 11:58 34.531888 -117.115686 47 9520ft 118kts
30-Dec-17 11:59 34.553047 -117.085439 47 9551ft 117kts
30-Dec-17 12:00 34.574277 -117.055071 47 9564ft 119kts
30-Dec-17 12:01 34.594031 -117.022683 59 9564ft 121kts
30-Dec-17 12:02 34.610350 -116.986876 59 9564ft 121kts
30-Dec-17 12:03 34.626832 -116.950897 59 9564ft 122kts
30-Dec-17 12:04 34.643373 -116.914704 61 9565ft 122kts
30-Dec-17 12:05 34.659182 -116.877952 61 9565ft 123kts
30-Dec-17 12:06 34.672569 -116.839708 68 9565ft 123kts
30-Dec-17 12:07 34.684964 -116.800797 68 9565ft 123kts
30-Dec-17 12:08 34.697346 -116.761934 68 9565ft 123kts
30-Dec-17 12:09 34.709757 -116.722985 68 9565ft 123kts
30-Dec-17 12:10 34.722114 -116.684211 68 9565ft 123kts
30-Dec-17 12:11 34.734475 -116.645435 68 9565ft 123kts
30-Dec-17 12:12 34.746849 -116.606623 68 9565ft 123kts
30-Dec-17 12:13 34.759210 -116.567858 68 9565ft 122kts
30-Dec-17 12:14 34.771552 -116.529159 68 9565ft 122kts
30-Dec-17 12:15 34.783871 -116.490538 68 9565ft 122kts
30-Dec-17 12:16 34.793111 -116.450947 88 9566ft 122kts
30-Dec-17 12:17 34.794673 -116.409723 88 9565ft 122kts
30-Dec-17 12:18 34.795097 -116.368683 91 9570ft 121kts
30-Dec-17 12:19 34.794973 -116.327854 91 9576ft 120kts
30-Dec-17 12:20 34.794834 -116.287057 91 9584ft 120kts
30-Dec-17 12:21 34.794669 -116.246626 91 9592ft 119kts
30-Dec-17 12:22 34.794465 -116.205971 91 9601ft 121kts
30-Dec-17 12:23 34.794215 -116.164916 91 9608ft 122kts
30-Dec-17 12:24 34.793942 -116.123494 91 9610ft 122kts
30-Dec-17 12:25 34.793671 -116.081986 91 9610ft 123kts
30-Dec-17 12:26 34.792938 -116.040025 91 9582ft 123kts
30-Dec-17 12:27 34.792123 -115.998370 91 9582ft 122kts
30-Dec-17 12:28 34.791318 -115.956866 91 9583ft 122kts
30-Dec-17 12:29 34.790523 -115.915563 91 9583ft 122kts
30-Dec-17 12:30 34.789733 -115.874202 91 9583ft 122kts
30-Dec-17 12:31 34.788952 -115.833014 91 9583ft 121kts
30-Dec-17 12:32 34.788178 -115.791890 91 9583ft 121kts
30-Dec-17 12:33 34.787408 -115.750697 91 9583ft 121kts
30-Dec-17 12:34 34.786644 -115.709538 91 9583ft 121kts
30-Dec-17 12:35 34.785888 -115.668486 91 9582ft 121kts
30-Dec-17 12:36 34.785118 -115.627427 91 9574ft 122kts
30-Dec-17 12:37 34.784321 -115.586150 91 9566ft 122kts
30-Dec-17 12:38 34.783492 -115.544644 91 9559ft 122kts
30-Dec-17 12:39 34.782634 -115.503177 91 9551ft 122kts
30-Dec-17 12:40 34.781710 -115.461063 91 9342ft 126kts
30-Dec-17 12:41 34.780573 -115.417862 91 9053ft 128kts
30-Dec-17 12:42 34.779246 -115.374143 91 8761ft 129kts
30-Dec-17 12:43 34.777766 -115.330580 91 8465ft 129kts
30-Dec-17 12:44 34.776113 -115.286623 91 8160ft 129kts
30-Dec-17 12:45 34.774297 -115.242949 91 7854ft 128kts
30-Dec-17 12:46 34.772331 -115.199941 91 7549ft 127kts
30-Dec-17 12:47 34.770226 -115.157243 91 7244ft 126kts
30-Dec-17 12:48 34.768005 -115.114817 91 6939ft 125kts
30-Dec-17 12:49 34.765676 -115.072734 91 6636ft 125kts
30-Dec-17 12:50 34.760625 -115.031044 105 6333ft 125kts
30-Dec-17 12:51 34.750181 -114.990514 105 6029ft 125kts
30-Dec-17 12:52 34.739665 -114.950315 105 5726ft 124kts
30-Dec-17 12:53 34.729078 -114.910485 105 5424ft 123kts
30-Dec-17 12:54 34.718404 -114.870950 105 5121ft 122kts
30-Dec-17 12:55 34.707666 -114.831759 105 4819ft 121kts
30-Dec-17 12:56 34.696894 -114.792964 105 4517ft 120kts
30-Dec-17 12:57 34.686066 -114.754440 105 4214ft 120kts
30-Dec-17 12:58 34.675253 -114.716385 105 3912ft 119kts
30-Dec-17 12:59 34.664932 -114.680562 104 3851ft 106kts
30-Dec-17 13:00 34.655262 -114.647121 104 3850ft 104kts
30-Dec-17 13:01 34.645800 -114.613871 104 3846ft 104kts
30-Dec-17 13:02 34.636536 -114.580632 104 3842ft 103kts
30-Dec-17 13:03 34.627333 -114.546653 104 3687ft 112kts
30-Dec-17 13:04 34.617670 -114.509377 104 3293ft 114kts
30-Dec-17 13:05 34.608576 -114.473090 104 2868ft 106kts
30-Dec-17 13:06 34.606403 -114.440128 82 2353ft 95kts
30-Dec-17 13:07 34.607563 -114.413439 88 2044ft 72kts
30-Dec-17 13:08 34.605191 -114.389504 108 1725ft 73kts
30-Dec-17 13:09 34.592143 -114.373025 150 1157ft 71kts
30-Dec-17 13:10 34.576450 -114.362070 149 751ft 44kts
30-Dec-17 13:11 34.574245 -114.361444 238 750ft 1kts
30-Dec-17 13:12 34.571406 -114.359758 148 750ft 20kts
30-Dec-17 13:13 34.569988 -114.360515 261 750ft 0kts
30-Dec-17 13:14 34.569959 -114.360593 229 750ft 0kts
30-Dec-17 13:15 34.569959 -114.360593 229 750ft 0kts

Navigation Log

Ident Type
Flight plan parsing failed, navigation log unavailable